sensor_id;sensor_type;location;lat;lon;timestamp;P1;durP1;ratioP1;P2;durP2;ratioP2
69502;SDS011;56704;54.242;12.442;2023-04-29T00:01:14;7.75;;;2.05;;
69502;SDS011;56704;54.242;12.442;2023-04-29T00:03:42;6.45;;;2.13;;
69502;SDS011;56704;54.242;12.442;2023-04-29T00:06:08;5.30;;;1.83;;
69502;SDS011;56704;54.242;12.442;2023-04-29T00:08:36;5.90;;;2.35;;
69502;SDS011;56704;54.242;12.442;2023-04-29T00:11:02;9.02;;;2.72;;
69502;SDS011;56704;54.242;12.442;2023-04-29T00:13:29;7.75;;;2.20;;
69502;SDS011;56704;54.242;12.442;2023-04-29T00:15:56;5.38;;;2.28;;
69502;SDS011;56704;54.242;12.442;2023-04-29T00:18:22;6.10;;;2.10;;
69502;SDS011;56704;54.242;12.442;2023-04-29T00:20:50;6.03;;;2.40;;
69502;SDS011;56704;54.242;12.442;2023-04-29T00:23:17;6.80;;;2.17;;
69502;SDS011;56704;54.242;12.442;2023-04-29T00:25:43;6.78;;;2.13;;
69502;SDS011;56704;54.242;12.442;2023-04-29T00:28:10;9.60;;;2.88;;
69502;SDS011;56704;54.242;12.442;2023-04-29T00:30:37;7.60;;;2.40;;
69502;SDS011;56704;54.242;12.442;2023-04-29T00:33:03;8.15;;;2.63;;
69502;SDS011;56704;54.242;12.442;2023-04-29T00:35:30;8.02;;;2.80;;
69502;SDS011;56704;54.242;12.442;2023-04-29T00:37:58;9.15;;;2.58;;
69502;SDS011;56704;54.242;12.442;2023-04-29T00:40:26;8.57;;;2.60;;
69502;SDS011;56704;54.242;12.442;2023-04-29T00:42:53;9.97;;;3.00;;
69502;SDS011;56704;54.242;12.442;2023-04-29T00:45:19;8.10;;;2.53;;
69502;SDS011;56704;54.242;12.442;2023-04-29T00:47:46;11.73;;;2.75;;
69502;SDS011;56704;54.242;12.442;2023-04-29T00:50:12;8.77;;;2.65;;
69502;SDS011;56704;54.242;12.442;2023-04-29T00:52:39;8.57;;;2.85;;
69502;SDS011;56704;54.242;12.442;2023-04-29T00:55:08;9.47;;;3.13;;
69502;SDS011;56704;54.242;12.442;2023-04-29T00:57:37;8.20;;;3.22;;
69502;SDS011;56704;54.242;12.442;2023-04-29T01:00:04;9.55;;;3.60;;
69502;SDS011;56704;54.242;12.442;2023-04-29T01:02:34;11.02;;;3.45;;
69502;SDS011;56704;54.242;12.442;2023-04-29T01:05:00;9.95;;;3.50;;
69502;SDS011;56704;54.242;12.442;2023-04-29T01:07:29;7.43;;;2.90;;
69502;SDS011;56704;54.242;12.442;2023-04-29T01:10:01;10.20;;;3.10;;
69502;SDS011;56704;54.242;12.442;2023-04-29T01:12:35;8.93;;;3.20;;
69502;SDS011;56704;54.242;12.442;2023-04-29T01:15:09;9.00;;;2.97;;
69502;SDS011;56704;54.242;12.442;2023-04-29T01:17:43;7.88;;;3.28;;
69502;SDS011;56704;54.242;12.442;2023-04-29T01:20:14;10.50;;;3.03;;
69502;SDS011;56704;54.242;12.442;2023-04-29T01:22:42;10.57;;;3.00;;
69502;SDS011;56704;54.242;12.442;2023-04-29T01:25:10;10.93;;;3.40;;
69502;SDS011;56704;54.242;12.442;2023-04-29T01:27:38;10.23;;;3.22;;
69502;SDS011;56704;54.242;12.442;2023-04-29T01:30:12;8.35;;;2.92;;
69502;SDS011;56704;54.242;12.442;2023-04-29T01:32:50;10.03;;;3.27;;
69502;SDS011;56704;54.242;12.442;2023-04-29T01:35:34;8.65;;;3.08;;
69502;SDS011;56704;54.242;12.442;2023-04-29T01:38:15;12.60;;;3.40;;
69502;SDS011;56704;54.242;12.442;2023-04-29T01:40:49;9.43;;;3.58;;
69502;SDS011;56704;54.242;12.442;2023-04-29T01:43:23;13.98;;;3.67;;
69502;SDS011;56704;54.242;12.442;2023-04-29T01:45:52;11.73;;;3.03;;
69502;SDS011;56704;54.242;12.442;2023-04-29T01:48:21;10.55;;;3.10;;
69502;SDS011;56704;54.242;12.442;2023-04-29T01:50:49;9.88;;;3.40;;
69502;SDS011;56704;54.242;12.442;2023-04-29T01:53:15;9.40;;;3.47;;
69502;SDS011;56704;54.242;12.442;2023-04-29T01:55:42;9.13;;;3.10;;
69502;SDS011;56704;54.242;12.442;2023-04-29T01:58:10;10.33;;;3.57;;
69502;SDS011;56704;54.242;12.442;2023-04-29T02:00:36;9.82;;;3.50;;
69502;SDS011;56704;54.242;12.442;2023-04-29T02:03:03;9.40;;;3.38;;
69502;SDS011;56704;54.242;12.442;2023-04-29T02:05:30;10.27;;;3.22;;
69502;SDS011;56704;54.242;12.442;2023-04-29T02:07:58;13.63;;;3.80;;
69502;SDS011;56704;54.242;12.442;2023-04-29T02:10:24;9.43;;;3.27;;
69502;SDS011;56704;54.242;12.442;2023-04-29T02:12:51;10.63;;;3.60;;
69502;SDS011;56704;54.242;12.442;2023-04-29T02:15:19;11.60;;;3.65;;
69502;SDS011;56704;54.242;12.442;2023-04-29T02:17:46;11.20;;;3.25;;
69502;SDS011;56704;54.242;12.442;2023-04-29T02:20:13;11.50;;;3.72;;
69502;SDS011;56704;54.242;12.442;2023-04-29T02:22:40;11.53;;;3.37;;
69502;SDS011;56704;54.242;12.442;2023-04-29T02:25:06;10.60;;;3.55;;
69502;SDS011;56704;54.242;12.442;2023-04-29T02:27:33;9.55;;;3.40;;
69502;SDS011;56704;54.242;12.442;2023-04-29T02:30:00;9.00;;;3.33;;
69502;SDS011;56704;54.242;12.442;2023-04-29T02:32:30;10.05;;;3.63;;
69502;SDS011;56704;54.242;12.442;2023-04-29T02:34:57;9.87;;;3.47;;
69502;SDS011;56704;54.242;12.442;2023-04-29T02:37:23;9.15;;;3.60;;
69502;SDS011;56704;54.242;12.442;2023-04-29T02:39:50;9.02;;;3.30;;
69502;SDS011;56704;54.242;12.442;2023-04-29T02:42:16;9.43;;;2.78;;
69502;SDS011;56704;54.242;12.442;2023-04-29T02:44:44;12.00;;;3.28;;
69502;SDS011;56704;54.242;12.442;2023-04-29T02:47:10;10.50;;;3.10;;
69502;SDS011;56704;54.242;12.442;2023-04-29T02:49:40;8.55;;;3.08;;
69502;SDS011;56704;54.242;12.442;2023-04-29T02:52:06;10.00;;;3.88;;
69502;SDS011;56704;54.242;12.442;2023-04-29T02:54:33;10.23;;;3.70;;
69502;SDS011;56704;54.242;12.442;2023-04-29T02:57:00;9.32;;;3.00;;
69502;SDS011;56704;54.242;12.442;2023-04-29T02:59:27;9.13;;;3.47;;
69502;SDS011;56704;54.242;12.442;2023-04-29T03:01:53;9.23;;;3.13;;
69502;SDS011;56704;54.242;12.442;2023-04-29T03:04:21;14.90;;;3.60;;
69502;SDS011;56704;54.242;12.442;2023-04-29T03:06:49;9.95;;;2.97;;
69502;SDS011;56704;54.242;12.442;2023-04-29T03:09:15;10.65;;;3.28;;
69502;SDS011;56704;54.242;12.442;2023-04-29T03:11:42;8.93;;;3.07;;
69502;SDS011;56704;54.242;12.442;2023-04-29T03:14:09;9.52;;;2.83;;
69502;SDS011;56704;54.242;12.442;2023-04-29T03:16:35;11.95;;;3.90;;
69502;SDS011;56704;54.242;12.442;2023-04-29T03:19:02;7.47;;;2.65;;
69502;SDS011;56704;54.242;12.442;2023-04-29T03:21:29;7.75;;;2.85;;
69502;SDS011;56704;54.242;12.442;2023-04-29T03:23:56;10.33;;;3.03;;
69502;SDS011;56704;54.242;12.442;2023-04-29T03:26:23;8.27;;;3.30;;
69502;SDS011;56704;54.242;12.442;2023-04-29T03:28:50;8.52;;;3.33;;
69502;SDS011;56704;54.242;12.442;2023-04-29T03:31:16;9.70;;;2.95;;
69502;SDS011;56704;54.242;12.442;2023-04-29T03:33:45;10.10;;;3.10;;
69502;SDS011;56704;54.242;12.442;2023-04-29T03:36:11;10.33;;;3.17;;
69502;SDS011;56704;54.242;12.442;2023-04-29T03:38:38;10.68;;;3.20;;
69502;SDS011;56704;54.242;12.442;2023-04-29T03:41:06;8.55;;;3.10;;
69502;SDS011;56704;54.242;12.442;2023-04-29T03:43:33;7.20;;;3.00;;
69502;SDS011;56704;54.242;12.442;2023-04-29T03:46:00;11.98;;;3.35;;
69502;SDS011;56704;54.242;12.442;2023-04-29T03:48:27;7.93;;;2.80;;
69502;SDS011;56704;54.242;12.442;2023-04-29T03:50:53;7.43;;;3.00;;
69502;SDS011;56704;54.242;12.442;2023-04-29T03:53:20;8.63;;;2.97;;
69502;SDS011;56704;54.242;12.442;2023-04-29T03:55:46;12.23;;;3.83;;
69502;SDS011;56704;54.242;12.442;2023-04-29T03:58:14;9.23;;;3.00;;
69502;SDS011;56704;54.242;12.442;2023-04-29T04:00:41;7.57;;;2.97;;
69502;SDS011;56704;54.242;12.442;2023-04-29T04:03:08;8.45;;;2.88;;
69502;SDS011;56704;54.242;12.442;2023-04-29T04:05:34;9.27;;;3.20;;
69502;SDS011;56704;54.242;12.442;2023-04-29T04:08:01;8.23;;;2.75;;
69502;SDS011;56704;54.242;12.442;2023-04-29T04:10:27;11.93;;;3.55;;
69502;SDS011;56704;54.242;12.442;2023-04-29T04:12:54;7.00;;;2.53;;
69502;SDS011;56704;54.242;12.442;2023-04-29T04:15:22;10.13;;;3.15;;
69502;SDS011;56704;54.242;12.442;2023-04-29T04:17:48;9.98;;;3.60;;
69502;SDS011;56704;54.242;12.442;2023-04-29T04:20:15;10.88;;;3.42;;
69502;SDS011;56704;54.242;12.442;2023-04-29T04:22:42;9.25;;;3.38;;
69502;SDS011;56704;54.242;12.442;2023-04-29T04:25:08;7.27;;;3.37;;
69502;SDS011;56704;54.242;12.442;2023-04-29T04:27:35;7.28;;;3.00;;
69502;SDS011;56704;54.242;12.442;2023-04-29T04:30:02;10.32;;;3.75;;
69502;SDS011;56704;54.242;12.442;2023-04-29T04:32:31;9.98;;;3.10;;
69502;SDS011;56704;54.242;12.442;2023-04-29T04:34:57;11.65;;;2.97;;
69502;SDS011;56704;54.242;12.442;2023-04-29T04:37:24;10.60;;;3.40;;
69502;SDS011;56704;54.242;12.442;2023-04-29T04:39:50;11.45;;;3.03;;
69502;SDS011;56704;54.242;12.442;2023-04-29T04:42:17;9.70;;;3.40;;
69502;SDS011;56704;54.242;12.442;2023-04-29T04:44:44;11.52;;;3.28;;
69502;SDS011;56704;54.242;12.442;2023-04-29T04:47:10;11.15;;;3.88;;
69502;SDS011;56704;54.242;12.442;2023-04-29T04:49:38;7.43;;;3.07;;
69502;SDS011;56704;54.242;12.442;2023-04-29T04:52:05;10.63;;;3.80;;
69502;SDS011;56704;54.242;12.442;2023-04-29T04:54:32;8.10;;;3.47;;
69502;SDS011;56704;54.242;12.442;2023-04-29T04:56:59;10.13;;;3.92;;
69502;SDS011;56704;54.242;12.442;2023-04-29T04:59:30;10.80;;;4.00;;
69502;SDS011;56704;54.242;12.442;2023-04-29T05:01:56;9.87;;;3.63;;
69502;SDS011;56704;54.242;12.442;2023-04-29T05:04:23;10.90;;;3.40;;
69502;SDS011;56704;54.242;12.442;2023-04-29T05:06:51;11.35;;;3.63;;
69502;SDS011;56704;54.242;12.442;2023-04-29T05:09:17;6.68;;;3.10;;
69502;SDS011;56704;54.242;12.442;2023-04-29T05:11:44;13.25;;;3.72;;
69502;SDS011;56704;54.242;12.442;2023-04-29T05:14:11;9.83;;;2.80;;
69502;SDS011;56704;54.242;12.442;2023-04-29T05:16:37;10.85;;;3.00;;
69502;SDS011;56704;54.242;12.442;2023-04-29T05:19:04;11.20;;;3.45;;
69502;SDS011;56704;54.242;12.442;2023-04-29T05:21:31;9.00;;;3.20;;
69502;SDS011;56704;54.242;12.442;2023-04-29T05:23:58;7.80;;;2.95;;
69502;SDS011;56704;54.242;12.442;2023-04-29T05:26:25;8.87;;;3.23;;
69502;SDS011;56704;54.242;12.442;2023-04-29T05:28:52;7.97;;;2.85;;
69502;SDS011;56704;54.242;12.442;2023-04-29T05:31:19;13.15;;;3.50;;
69502;SDS011;56704;54.242;12.442;2023-04-29T05:33:46;8.40;;;3.45;;
69502;SDS011;56704;54.242;12.442;2023-04-29T05:36:13;8.75;;;3.10;;
69502;SDS011;56704;54.242;12.442;2023-04-29T05:38:39;9.30;;;3.50;;
69502;SDS011;56704;54.242;12.442;2023-04-29T05:41:08;11.77;;;3.83;;
69502;SDS011;56704;54.242;12.442;2023-04-29T05:43:34;8.90;;;3.80;;
69502;SDS011;56704;54.242;12.442;2023-04-29T05:46:01;10.27;;;3.85;;
69502;SDS011;56704;54.242;12.442;2023-04-29T05:48:27;12.73;;;4.10;;
69502;SDS011;56704;54.242;12.442;2023-04-29T05:50:54;9.60;;;3.47;;
69502;SDS011;56704;54.242;12.442;2023-04-29T05:53:21;8.43;;;3.50;;
69502;SDS011;56704;54.242;12.442;2023-04-29T05:55:48;10.38;;;3.30;;
69502;SDS011;56704;54.242;12.442;2023-04-29T05:58:16;11.98;;;4.03;;
69502;SDS011;56704;54.242;12.442;2023-04-29T06:00:43;11.32;;;3.80;;
69502;SDS011;56704;54.242;12.442;2023-04-29T06:03:09;11.17;;;3.57;;
69502;SDS011;56704;54.242;12.442;2023-04-29T06:05:36;11.98;;;3.40;;
69502;SDS011;56704;54.242;12.442;2023-04-29T06:08:03;12.32;;;3.67;;
69502;SDS011;56704;54.242;12.442;2023-04-29T06:10:30;10.98;;;3.65;;
69502;SDS011;56704;54.242;12.442;2023-04-29T06:12:57;11.35;;;3.17;;
69502;SDS011;56704;54.242;12.442;2023-04-29T06:15:25;15.37;;;3.70;;
69502;SDS011;56704;54.242;12.442;2023-04-29T06:17:52;11.55;;;3.88;;
69502;SDS011;56704;54.242;12.442;2023-04-29T06:20:18;13.57;;;3.65;;
69502;SDS011;56704;54.242;12.442;2023-04-29T06:22:45;8.90;;;3.80;;
69502;SDS011;56704;54.242;12.442;2023-04-29T06:25:12;10.77;;;3.72;;
69502;SDS011;56704;54.242;12.442;2023-04-29T06:27:39;10.20;;;3.70;;
69502;SDS011;56704;54.242;12.442;2023-04-29T06:30:06;10.07;;;3.40;;
69502;SDS011;56704;54.242;12.442;2023-04-29T06:32:35;10.85;;;3.55;;
69502;SDS011;56704;54.242;12.442;2023-04-29T06:35:01;10.90;;;3.55;;
69502;SDS011;56704;54.242;12.442;2023-04-29T06:37:28;11.63;;;3.60;;
69502;SDS011;56704;54.242;12.442;2023-04-29T06:39:54;7.77;;;3.00;;
69502;SDS011;56704;54.242;12.442;2023-04-29T06:42:21;9.70;;;3.20;;
69502;SDS011;56704;54.242;12.442;2023-04-29T06:44:47;7.95;;;2.85;;
69502;SDS011;56704;54.242;12.442;2023-04-29T06:47:14;11.63;;;3.25;;
69502;SDS011;56704;54.242;12.442;2023-04-29T06:49:42;13.40;;;3.38;;
69502;SDS011;56704;54.242;12.442;2023-04-29T06:52:09;8.90;;;3.07;;
69502;SDS011;56704;54.242;12.442;2023-04-29T06:54:35;9.30;;;3.47;;
69502;SDS011;56704;54.242;12.442;2023-04-29T06:57:02;8.15;;;3.28;;
69502;SDS011;56704;54.242;12.442;2023-04-29T06:59:29;9.65;;;3.10;;
69502;SDS011;56704;54.242;12.442;2023-04-29T07:01:56;8.80;;;2.90;;
69502;SDS011;56704;54.242;12.442;2023-04-29T07:04:23;10.67;;;3.00;;
69502;SDS011;56704;54.242;12.442;2023-04-29T07:06:51;9.55;;;2.85;;
69502;SDS011;56704;54.242;12.442;2023-04-29T07:09:18;11.60;;;3.30;;
69502;SDS011;56704;54.242;12.442;2023-04-29T07:11:45;8.68;;;3.20;;
69502;SDS011;56704;54.242;12.442;2023-04-29T07:14:11;8.85;;;2.92;;
69502;SDS011;56704;54.242;12.442;2023-04-29T07:16:38;9.40;;;3.20;;
69502;SDS011;56704;54.242;12.442;2023-04-29T07:19:05;11.10;;;3.50;;
69502;SDS011;56704;54.242;12.442;2023-04-29T07:21:31;10.98;;;3.15;;
69502;SDS011;56704;54.242;12.442;2023-04-29T07:23:59;9.93;;;3.33;;
69502;SDS011;56704;54.242;12.442;2023-04-29T07:26:28;9.18;;;3.17;;
69502;SDS011;56704;54.242;12.442;2023-04-29T07:28:56;11.47;;;3.43;;
69502;SDS011;56704;54.242;12.442;2023-04-29T07:31:22;13.75;;;3.50;;
69502;SDS011;56704;54.242;12.442;2023-04-29T07:33:49;9.48;;;3.40;;
69502;SDS011;56704;54.242;12.442;2023-04-29T07:36:15;13.23;;;3.67;;
69502;SDS011;56704;54.242;12.442;2023-04-29T07:38:42;11.68;;;3.22;;
69502;SDS011;56704;54.242;12.442;2023-04-29T07:41:10;8.13;;;2.90;;
69502;SDS011;56704;54.242;12.442;2023-04-29T07:43:40;6.68;;;2.45;;
69502;SDS011;56704;54.242;12.442;2023-04-29T07:46:06;10.02;;;3.20;;
69502;SDS011;56704;54.242;12.442;2023-04-29T07:48:35;9.52;;;3.67;;
69502;SDS011;56704;54.242;12.442;2023-04-29T07:51:03;7.05;;;2.95;;
69502;SDS011;56704;54.242;12.442;2023-04-29T07:53:30;9.47;;;3.00;;
69502;SDS011;56704;54.242;12.442;2023-04-29T07:55:56;9.38;;;3.10;;
69502;SDS011;56704;54.242;12.442;2023-04-29T07:58:24;10.05;;;3.53;;
69502;SDS011;56704;54.242;12.442;2023-04-29T08:00:54;9.25;;;2.88;;
69502;SDS011;56704;54.242;12.442;2023-04-29T08:03:20;8.05;;;2.97;;
69502;SDS011;56704;54.242;12.442;2023-04-29T08:05:47;11.37;;;3.17;;
69502;SDS011;56704;54.242;12.442;2023-04-29T08:08:15;7.07;;;2.80;;
69502;SDS011;56704;54.242;12.442;2023-04-29T08:10:41;10.63;;;3.10;;
69502;SDS011;56704;54.242;12.442;2023-04-29T08:13:09;8.55;;;2.85;;
69502;SDS011;56704;54.242;12.442;2023-04-29T08:15:37;9.18;;;3.10;;
69502;SDS011;56704;54.242;12.442;2023-04-29T08:18:04;8.20;;;3.10;;
69502;SDS011;56704;54.242;12.442;2023-04-29T08:20:31;8.88;;;3.03;;
69502;SDS011;56704;54.242;12.442;2023-04-29T08:23:00;10.07;;;2.75;;
69502;SDS011;56704;54.242;12.442;2023-04-29T08:25:27;7.35;;;2.95;;
69502;SDS011;56704;54.242;12.442;2023-04-29T08:27:54;6.90;;;2.97;;
69502;SDS011;56704;54.242;12.442;2023-04-29T08:30:21;6.97;;;2.70;;
69502;SDS011;56704;54.242;12.442;2023-04-29T08:32:50;8.32;;;2.90;;
69502;SDS011;56704;54.242;12.442;2023-04-29T08:35:16;7.50;;;3.08;;
69502;SDS011;56704;54.242;12.442;2023-04-29T08:37:43;7.57;;;2.80;;
69502;SDS011;56704;54.242;12.442;2023-04-29T08:40:10;7.22;;;2.72;;
69502;SDS011;56704;54.242;12.442;2023-04-29T08:42:38;7.60;;;2.17;;
69502;SDS011;56704;54.242;12.442;2023-04-29T08:45:05;7.22;;;2.83;;
69502;SDS011;56704;54.242;12.442;2023-04-29T08:47:32;8.23;;;3.22;;
69502;SDS011;56704;54.242;12.442;2023-04-29T08:50:01;8.40;;;2.88;;
69502;SDS011;56704;54.242;12.442;2023-04-29T08:52:30;7.63;;;2.83;;
69502;SDS011;56704;54.242;12.442;2023-04-29T08:54:57;8.57;;;3.20;;
69502;SDS011;56704;54.242;12.442;2023-04-29T08:57:25;8.43;;;3.33;;
69502;SDS011;56704;54.242;12.442;2023-04-29T08:59:54;8.48;;;2.78;;
69502;SDS011;56704;54.242;12.442;2023-04-29T09:02:21;10.70;;;2.80;;
69502;SDS011;56704;54.242;12.442;2023-04-29T09:04:52;7.18;;;2.90;;
69502;SDS011;56704;54.242;12.442;2023-04-29T09:07:24;5.67;;;2.40;;
69502;SDS011;56704;54.242;12.442;2023-04-29T09:09:52;8.90;;;2.90;;
69502;SDS011;56704;54.242;12.442;2023-04-29T09:12:19;7.28;;;2.85;;
69502;SDS011;56704;54.242;12.442;2023-04-29T09:14:46;8.95;;;3.50;;
69502;SDS011;56704;54.242;12.442;2023-04-29T09:17:13;8.32;;;3.10;;
69502;SDS011;56704;54.242;12.442;2023-04-29T09:19:40;8.47;;;3.17;;
69502;SDS011;56704;54.242;12.442;2023-04-29T09:22:09;8.70;;;2.80;;
69502;SDS011;56704;54.242;12.442;2023-04-29T09:24:37;7.50;;;2.75;;
69502;SDS011;56704;54.242;12.442;2023-04-29T09:27:04;6.55;;;2.53;;
69502;SDS011;56704;54.242;12.442;2023-04-29T09:29:30;10.65;;;3.60;;
69502;SDS011;56704;54.242;12.442;2023-04-29T09:31:58;7.53;;;2.93;;
69502;SDS011;56704;54.242;12.442;2023-04-29T09:34:29;6.68;;;2.78;;
69502;SDS011;56704;54.242;12.442;2023-04-29T09:36:56;7.68;;;2.90;;
69502;SDS011;56704;54.242;12.442;2023-04-29T09:39:23;7.43;;;2.90;;
69502;SDS011;56704;54.242;12.442;2023-04-29T09:41:58;7.13;;;2.80;;
69502;SDS011;56704;54.242;12.442;2023-04-29T09:44:27;7.47;;;2.70;;
69502;SDS011;56704;54.242;12.442;2023-04-29T09:46:55;7.10;;;3.15;;
69502;SDS011;56704;54.242;12.442;2023-04-29T09:49:24;7.90;;;3.25;;
69502;SDS011;56704;54.242;12.442;2023-04-29T09:51:52;8.70;;;3.22;;
69502;SDS011;56704;54.242;12.442;2023-04-29T09:54:21;7.80;;;3.17;;
69502;SDS011;56704;54.242;12.442;2023-04-29T09:56:48;6.87;;;3.33;;
69502;SDS011;56704;54.242;12.442;2023-04-29T09:59:17;7.35;;;2.97;;
69502;SDS011;56704;54.242;12.442;2023-04-29T10:01:44;8.32;;;3.10;;
69502;SDS011;56704;54.242;12.442;2023-04-29T10:04:13;7.57;;;2.97;;
69502;SDS011;56704;54.242;12.442;2023-04-29T10:06:41;8.32;;;3.38;;
69502;SDS011;56704;54.242;12.442;2023-04-29T10:09:11;10.53;;;3.60;;
69502;SDS011;56704;54.242;12.442;2023-04-29T10:11:41;10.00;;;3.45;;
69502;SDS011;56704;54.242;12.442;2023-04-29T10:14:09;10.88;;;3.53;;
69502;SDS011;56704;54.242;12.442;2023-04-29T10:16:41;8.55;;;3.33;;
69502;SDS011;56704;54.242;12.442;2023-04-29T10:19:12;9.07;;;3.17;;
69502;SDS011;56704;54.242;12.442;2023-04-29T10:21:43;8.30;;;3.50;;
69502;SDS011;56704;54.242;12.442;2023-04-29T10:24:10;8.00;;;3.15;;
69502;SDS011;56704;54.242;12.442;2023-04-29T10:26:39;8.38;;;3.33;;
69502;SDS011;56704;54.242;12.442;2023-04-29T10:29:08;9.15;;;3.13;;
69502;SDS011;56704;54.242;12.442;2023-04-29T10:31:40;8.10;;;3.28;;
69502;SDS011;56704;54.242;12.442;2023-04-29T10:34:08;9.70;;;2.87;;
69502;SDS011;56704;54.242;12.442;2023-04-29T10:36:34;8.90;;;2.90;;
69502;SDS011;56704;54.242;12.442;2023-04-29T10:39:03;9.55;;;3.45;;
69502;SDS011;56704;54.242;12.442;2023-04-29T10:41:33;9.25;;;3.25;;
69502;SDS011;56704;54.242;12.442;2023-04-29T10:44:03;9.52;;;2.92;;
69502;SDS011;56704;54.242;12.442;2023-04-29T10:46:29;11.20;;;4.33;;
69502;SDS011;56704;54.242;12.442;2023-04-29T10:48:59;7.93;;;3.10;;
69502;SDS011;56704;54.242;12.442;2023-04-29T10:51:27;8.93;;;3.50;;
69502;SDS011;56704;54.242;12.442;2023-04-29T10:53:58;8.35;;;3.08;;
69502;SDS011;56704;54.242;12.442;2023-04-29T10:56:35;10.15;;;3.70;;
69502;SDS011;56704;54.242;12.442;2023-04-29T10:59:03;8.60;;;3.33;;
69502;SDS011;56704;54.242;12.442;2023-04-29T11:01:40;8.27;;;2.83;;
69502;SDS011;56704;54.242;12.442;2023-04-29T11:04:12;7.72;;;3.28;;
69502;SDS011;56704;54.242;12.442;2023-04-29T11:06:40;9.35;;;3.38;;
69502;SDS011;56704;54.242;12.442;2023-04-29T11:09:10;6.32;;;2.88;;
69502;SDS011;56704;54.242;12.442;2023-04-29T11:11:42;12.63;;;3.47;;
69502;SDS011;56704;54.242;12.442;2023-04-29T11:14:09;9.35;;;3.20;;
69502;SDS011;56704;54.242;12.442;2023-04-29T11:16:45;8.23;;;3.03;;
69502;SDS011;56704;54.242;12.442;2023-04-29T11:19:15;8.93;;;3.17;;
69502;SDS011;56704;54.242;12.442;2023-04-29T11:21:43;8.88;;;3.03;;
69502;SDS011;56704;54.242;12.442;2023-04-29T11:24:11;7.90;;;3.47;;
69502;SDS011;56704;54.242;12.442;2023-04-29T11:26:39;6.30;;;3.00;;
69502;SDS011;56704;54.242;12.442;2023-04-29T11:29:07;6.65;;;2.80;;
69502;SDS011;56704;54.242;12.442;2023-04-29T11:31:34;8.52;;;2.92;;
69502;SDS011;56704;54.242;12.442;2023-04-29T11:34:02;8.45;;;2.97;;
69502;SDS011;56704;54.242;12.442;2023-04-29T11:36:31;7.67;;;3.20;;
69502;SDS011;56704;54.242;12.442;2023-04-29T11:38:59;7.10;;;2.97;;
69502;SDS011;56704;54.242;12.442;2023-04-29T11:41:26;7.82;;;3.00;;
69502;SDS011;56704;54.242;12.442;2023-04-29T11:43:56;7.05;;;2.90;;
69502;SDS011;56704;54.242;12.442;2023-04-29T11:46:24;6.43;;;3.10;;
69502;SDS011;56704;54.242;12.442;2023-04-29T11:48:53;5.27;;;2.50;;
69502;SDS011;56704;54.242;12.442;2023-04-29T11:51:19;8.77;;;3.15;;
69502;SDS011;56704;54.242;12.442;2023-04-29T11:53:47;9.10;;;3.22;;
69502;SDS011;56704;54.242;12.442;2023-04-29T11:56:14;7.90;;;3.50;;
69502;SDS011;56704;54.242;12.442;2023-04-29T11:58:41;9.23;;;3.92;;
69502;SDS011;56704;54.242;12.442;2023-04-29T12:01:08;9.27;;;4.50;;
69502;SDS011;56704;54.242;12.442;2023-04-29T12:03:35;8.55;;;4.10;;
69502;SDS011;56704;54.242;12.442;2023-04-29T12:06:02;8.40;;;4.25;;
69502;SDS011;56704;54.242;12.442;2023-04-29T12:08:29;10.65;;;4.75;;
69502;SDS011;56704;54.242;12.442;2023-04-29T12:10:59;8.85;;;4.70;;
69502;SDS011;56704;54.242;12.442;2023-04-29T12:13:26;12.00;;;4.73;;
69502;SDS011;56704;54.242;12.442;2023-04-29T12:15:54;10.32;;;4.97;;
69502;SDS011;56704;54.242;12.442;2023-04-29T12:18:22;11.23;;;4.90;;
69502;SDS011;56704;54.242;12.442;2023-04-29T12:20:49;10.80;;;5.57;;
69502;SDS011;56704;54.242;12.442;2023-04-29T12:23:16;12.65;;;5.13;;
69502;SDS011;56704;54.242;12.442;2023-04-29T12:25:47;8.97;;;3.90;;
69502;SDS011;56704;54.242;12.442;2023-04-29T12:28:17;13.82;;;4.97;;
69502;SDS011;56704;54.242;12.442;2023-04-29T12:30:45;10.32;;;4.40;;
69502;SDS011;56704;54.242;12.442;2023-04-29T12:33:14;11.35;;;4.55;;
69502;SDS011;56704;54.242;12.442;2023-04-29T12:35:43;7.95;;;4.10;;
69502;SDS011;56704;54.242;12.442;2023-04-29T12:38:10;9.07;;;4.53;;
69502;SDS011;56704;54.242;12.442;2023-04-29T12:40:38;9.73;;;4.53;;
69502;SDS011;56704;54.242;12.442;2023-04-29T12:43:09;8.52;;;4.28;;
69502;SDS011;56704;54.242;12.442;2023-04-29T12:45:38;9.35;;;3.92;;
69502;SDS011;56704;54.242;12.442;2023-04-29T12:48:05;9.77;;;5.38;;
69502;SDS011;56704;54.242;12.442;2023-04-29T12:50:32;10.70;;;5.10;;
69502;SDS011;56704;54.242;12.442;2023-04-29T12:53:00;8.93;;;5.07;;
69502;SDS011;56704;54.242;12.442;2023-04-29T12:55:28;9.52;;;4.18;;
69502;SDS011;56704;54.242;12.442;2023-04-29T12:57:56;8.82;;;4.05;;
69502;SDS011;56704;54.242;12.442;2023-04-29T13:00:23;8.45;;;4.70;;
69502;SDS011;56704;54.242;12.442;2023-04-29T13:02:51;10.40;;;4.87;;
69502;SDS011;56704;54.242;12.442;2023-04-29T13:05:18;7.35;;;3.47;;
69502;SDS011;56704;54.242;12.442;2023-04-29T13:07:44;9.82;;;4.20;;
69502;SDS011;56704;54.242;12.442;2023-04-29T13:10:11;7.93;;;4.05;;
69502;SDS011;56704;54.242;12.442;2023-04-29T13:12:38;8.07;;;3.53;;
69502;SDS011;56704;54.242;12.442;2023-04-29T13:15:06;8.47;;;4.00;;
69502;SDS011;56704;54.242;12.442;2023-04-29T13:17:34;7.97;;;3.67;;
69502;SDS011;56704;54.242;12.442;2023-04-29T13:20:03;9.45;;;3.47;;
69502;SDS011;56704;54.242;12.442;2023-04-29T13:22:30;8.90;;;3.60;;
69502;SDS011;56704;54.242;12.442;2023-04-29T13:24:57;10.40;;;3.80;;
69502;SDS011;56704;54.242;12.442;2023-04-29T13:27:24;9.70;;;3.67;;
69502;SDS011;56704;54.242;12.442;2023-04-29T13:29:50;10.05;;;3.65;;
69502;SDS011;56704;54.242;12.442;2023-04-29T13:32:17;7.28;;;3.20;;
69502;SDS011;56704;54.242;12.442;2023-04-29T13:34:47;7.45;;;3.33;;
69502;SDS011;56704;54.242;12.442;2023-04-29T13:37:15;5.88;;;2.88;;
69502;SDS011;56704;54.242;12.442;2023-04-29T13:39:42;7.80;;;3.50;;
69502;SDS011;56704;54.242;12.442;2023-04-29T13:42:08;8.05;;;3.10;;
69502;SDS011;56704;54.242;12.442;2023-04-29T13:44:35;5.80;;;2.78;;
69502;SDS011;56704;54.242;12.442;2023-04-29T13:47:02;4.80;;;1.88;;
69502;SDS011;56704;54.242;12.442;2023-04-29T13:49:30;7.22;;;2.88;;
69502;SDS011;56704;54.242;12.442;2023-04-29T13:51:56;6.03;;;2.57;;
69502;SDS011;56704;54.242;12.442;2023-04-29T13:54:24;5.28;;;2.05;;
69502;SDS011;56704;54.242;12.442;2023-04-29T13:56:51;6.78;;;3.00;;
69502;SDS011;56704;54.242;12.442;2023-04-29T13:59:17;6.97;;;3.10;;
69502;SDS011;56704;54.242;12.442;2023-04-29T14:01:44;6.60;;;3.28;;
69502;SDS011;56704;54.242;12.442;2023-04-29T14:04:11;7.33;;;3.10;;
69502;SDS011;56704;54.242;12.442;2023-04-29T14:06:37;7.22;;;3.30;;
69502;SDS011;56704;54.242;12.442;2023-04-29T14:09:04;7.50;;;3.45;;
69502;SDS011;56704;54.242;12.442;2023-04-29T14:11:32;5.65;;;3.50;;
69502;SDS011;56704;54.242;12.442;2023-04-29T14:14:00;5.78;;;3.13;;
69502;SDS011;56704;54.242;12.442;2023-04-29T14:16:27;7.67;;;3.60;;
69502;SDS011;56704;54.242;12.442;2023-04-29T14:18:53;8.70;;;3.60;;
69502;SDS011;56704;54.242;12.442;2023-04-29T14:21:20;11.57;;;4.75;;
69502;SDS011;56704;54.242;12.442;2023-04-29T14:23:47;10.63;;;4.28;;
69502;SDS011;56704;54.242;12.442;2023-04-29T14:26:14;9.73;;;4.03;;
69502;SDS011;56704;54.242;12.442;2023-04-29T14:28:42;10.63;;;4.57;;
69502;SDS011;56704;54.242;12.442;2023-04-29T14:31:09;8.45;;;4.03;;
69502;SDS011;56704;54.242;12.442;2023-04-29T14:33:37;8.45;;;4.03;;